Time;durP1;ratioP1;P1;durP2;ratioP2;P2;SDS_P1;SDS_P2;PMS_P1;PMS_P2;Temp;Humidity;BMP_temperature;BMP_pressure;BME280_temperature;BME280_humidity;BME280_pressure;Samples;Min_cycle;Max_cycle;Signal;HPM_P1;HPM_P2
2022/06/28 00:00:46;;;;;;;16.30;12.70;;;;;;;;;;6280783;22;20031;-90
2022/06/28 00:03:12;;;;;;;16.75;12.95;;;;;;;;;;6250941;22;20015;-87
2022/06/28 00:05:38;;;;;;;16.85;12.00;;;;;;;;;;6276899;22;20741;-89
2022/06/28 00:08:07;;;;;;;18.52;13.70;;;;;;;;;;6250178;22;20023;-88
2022/06/28 00:10:42;;;;;;;24.08;15.65;;;;;;;;;;6251320;22;20075;-89
2022/06/28 00:13:09;;;;;;;26.60;15.77;;;;;;;;;;6251874;22;20016;-87
2022/06/28 00:18:32;;;;;;;22.25;14.98;;;;;;;;;;6253976;22;20106;-88
2022/06/28 00:21:02;;;;;;;21.58;15.55;;;;;;;;;;6225275;22;20081;-84
2022/06/28 00:23:29;;;;;;;20.33;16.50;;;;;;;;;;6249291;22;20077;-88
2022/06/28 00:25:58;;;;;;;21.30;16.23;;;;;;;;;;6250271;22;20027;-87
2022/06/28 00:28:24;;;;;;;24.73;16.48;;;;;;;;;;6248386;22;20024;-87
2022/06/28 00:31:00;;;;;;;17.92;16.10;;;;;;;;;;6275575;22;20075;-86
2022/06/28 00:33:26;;;;;;;25.00;19.08;;;;;;;;;;6275291;22;20069;-87
2022/06/28 00:35:52;;;;;;;22.00;17.42;;;;;;;;;;6246575;22;20071;-85
2022/06/28 00:38:46;;;;;;;36.63;17.52;;;;;;;;;;6247117;22;20035;-86
2022/06/28 00:41:21;;;;;;;23.88;18.45;;;;;;;;;;6276477;22;20376;-89
2022/06/28 00:44:06;;;;;;;27.00;19.75;;;;;;;;;;6279375;22;20023;-90
2022/06/28 00:46:35;;;;;;;27.20;19.38;;;;;;;;;;6254553;22;20033;-88
2022/06/28 00:49:17;;;;;;;28.98;20.33;;;;;;;;;;6254601;22;20024;-90
2022/06/28 00:51:43;;;;;;;30.23;19.05;;;;;;;;;;6278484;22;20064;-88
2022/06/28 00:54:21;;;;;;;25.75;20.30;;;;;;;;;;6221386;22;20020;-91
2022/06/28 00:57:09;;;;;;;27.73;19.80;;;;;;;;;;6253704;22;20328;-88
2022/06/28 01:00:03;;;;;;;22.48;20.10;;;;;;;;;;6279514;22;20075;-88
2022/06/28 01:02:44;;;;;;;29.20;20.83;;;;;;;;;;6281558;22;20026;-88
2022/06/28 01:05:10;;;;;;;22.05;17.88;;;;;;;;;;6253226;22;20116;-89
2022/06/28 01:07:36;;;;;;;14.52;13.05;;;;;;;;;;6228567;22;20024;-91
2022/06/28 01:16:55;;;;;;;115.78;13.50;;;;;;;;;;6252986;22;20069;-90
2022/06/28 01:19:21;;;;;;;249.65;14.38;;;;;;;;;;6227466;22;20019;-87
2022/06/28 01:22:09;;;;;;;326.00;15.50;;;;;;;;;;6277692;22;20016;-89
2022/06/28 01:24:41;;;;;;;589.65;18.70;;;;;;;;;;6277203;22;20336;-87
2022/06/28 01:38:00;;;;;;;211.48;16.00;;;;;;;;;;6280329;22;20698;-89
2022/06/28 01:43:32;;;;;;;300.73;17.20;;;;;;;;;;6280833;22;20078;-88
2022/06/28 01:45:59;;;;;;;181.25;13.90;;;;;;;;;;6252946;22;20509;-89
2022/06/28 01:54:35;;;;;;;155.90;15.70;;;;;;;;;;6243080;23;20329;-88
2022/06/28 01:57:04;;;;;;;109.85;15.23;;;;;;;;;;6248329;23;20027;-88
2022/06/28 01:59:31;;;;;;;286.88;17.60;;;;;;;;;;6197016;23;20035;-87
2022/06/28 02:01:57;;;;;;;205.30;16.60;;;;;;;;;;6200871;23;20020;-87
2022/06/28 02:04:32;;;;;;;177.70;17.60;;;;;;;;;;6221048;23;20024;-90
2022/06/28 02:07:10;;;;;;;257.88;20.23;;;;;;;;;;6221952;23;20470;-86
2022/06/28 02:09:37;;;;;;;118.93;18.23;;;;;;;;;;6221134;23;20031;-90
2022/06/28 02:12:19;;;;;;;194.05;18.65;;;;;;;;;;6245613;23;20102;-87
2022/06/28 02:14:57;;;;;;;108.13;19.00;;;;;;;;;;6244586;23;20020;-88
2022/06/28 02:20:52;;;;;;;45.00;20.52;;;12.50;99.90;;;;;;6217995;23;20047;-88
2022/06/28 02:26:44;;;;;;;32.97;22.73;;;;;;;;;;6283685;22;20030;-84
2022/06/28 02:32:39;;;;;;;24.27;21.65;;;;;;;;;;6308591;22;20024;-84
2022/06/28 02:40:47;;;;;;;27.38;21.65;;;;;;;;;;6305529;22;20359;-84
2022/06/28 02:43:13;;;;;;;24.40;21.58;;;;;;;;;;6251385;22;20074;-84
2022/06/28 02:45:42;;;;;;;30.35;20.13;;;;;;;;;;6303475;22;20102;-86
2022/06/28 02:48:08;;;;;;;25.30;21.20;;;;;;;;;;6301719;22;20015;-85
2022/06/28 02:59:27;;;;;;;25.45;20.85;;;;;;;;;;6267630;22;20131;-88
2022/06/28 03:02:04;;;;;;;28.73;20.60;;;;;;;;;;6273906;22;20050;-88
2022/06/28 03:04:30;;;;;;;27.15;20.02;;;;;;;;;;6244946;22;20066;-90
2022/06/28 03:06:56;;;;;;;22.00;19.25;;;;;;;;;;6201299;22;20020;-85
2022/06/28 03:09:34;;;;;;;25.33;18.75;;;;;;;;;;6247624;22;20098;-85
2022/06/28 03:12:22;;;;;;;23.30;19.45;;;;;;;;;;6244710;22;20016;-85
2022/06/28 03:17:45;;;;;;;22.90;18.35;;;;;;;;;;6245340;22;20054;-87
2022/06/28 03:24:20;;;;;;;22.45;16.48;;;12.50;99.90;;;;;;6276966;22;20114;-86
2022/06/28 03:27:12;;;;;;;21.63;17.70;;;;;;;;;;6247554;22;20031;-86
2022/06/28 04:03:22;;;;;;;19.38;16.52;;;;;;;;;;6233015;22;20016;-88
2022/06/28 04:09:40;;;;;;;25.35;16.40;;;;;;;;;;6208647;23;20082;-84
2022/06/28 04:12:06;;;;;;;18.85;16.85;;;;;;;;;;6211865;23;20036;-84
2022/06/28 04:14:33;;;;;;;26.20;17.67;;;;;;;;;;6189574;23;20091;-85
2022/06/28 04:21:07;;;;;;;;;;;;;;;;;;;;;
2022/06/28 04:24:04;;;;;;;21.77;17.75;;;12.60;99.90;;;;;;6217536;23;20074;-84
2022/06/28 04:27:04;;;;;;;24.10;19.48;;;;;;;;;;6185570;23;20264;-85
2022/06/28 04:29:49;;;;;;;26.10;19.08;;;;;;;;;;6185701;23;20028;-83
2022/06/28 04:32:15;;;;;;;23.67;18.45;;;;;;;;;;6213415;23;20020;-86
2022/06/28 04:34:42;;;;;;;24.27;19.02;;;;;;;;;;6185387;23;20025;-87
2022/06/28 04:37:08;;;;;;;24.83;17.92;;;;;;;;;;6211152;23;20361;-84
2022/06/28 04:40:02;;;;;;;25.13;17.83;;;;;;;;;;6161366;23;20027;-85
2022/06/28 04:48:52;;;;;;;21.75;16.88;;;;;;;;;;6275938;22;20027;-87
2022/06/28 04:51:27;;;;;;;21.58;15.80;;;;;;;;;;6190015;23;20333;-88
2022/06/28 04:53:54;;;;;;;19.48;14.75;;;;;;;;;;6190017;23;20345;-85
2022/06/28 04:56:21;;;;;;;21.92;14.70;;;;;;;;;;6188521;23;20031;-87
2022/06/28 04:58:50;;;;;;;18.95;13.98;;;;;;;;;;6212036;23;20021;-88
2022/06/28 05:01:17;;;;;;;21.65;15.02;;;;;;;;;;6163533;23;20017;-85
2022/06/28 05:03:43;;;;;;;17.27;13.70;;;;;;;;;;6214619;23;20016;-83
2022/06/28 05:06:09;;;;;;;18.30;13.00;;;;;;;;;;6185012;23;20017;-84
2022/06/28 05:08:35;;;;;;;19.33;12.82;;;;;;;;;;6213380;23;20441;-81
2022/06/28 05:11:14;;;;;;;21.02;12.52;;;;;;;;;;6188027;23;20024;-87
2022/06/28 05:13:40;;;;;;;16.50;13.38;;;;;;;;;;6188093;23;20024;-90
2022/06/28 05:16:15;;;;;;;20.33;12.93;;;;;;;;;;6213991;23;20326;-84
2022/06/28 05:28:50;;;;;;;25.85;15.00;;;;;;;;;;6273851;22;20039;-84
2022/06/28 05:31:16;;;;;;;21.63;16.05;;;;;;;;;;6217359;22;20513;-82
2022/06/28 05:33:49;;;;;;;24.48;17.88;;;;;;;;;;6244779;22;20047;-83
2022/06/28 05:39:11;;;;;;;25.42;17.58;;;;;;;;;;6268346;22;20459;-82
2022/06/28 05:41:55;;;;;;;24.40;16.40;;;;;;;;;;6237542;22;20452;-82
2022/06/28 05:44:47;;;;;;;23.70;15.55;;;;;;;;;;6207491;23;20082;-85
2022/06/28 05:47:13;;;;;;;19.27;15.35;;;;;;;;;;6189790;23;20076;-84
2022/06/28 05:49:48;;;;;;;26.55;15.30;;;;;;;;;;6215879;23;20024;-81
2022/06/28 05:52:14;;;;;;;23.05;15.40;;;;;;;;;;6243257;23;20023;-82
2022/06/28 05:54:51;;;;;;;;;;;;;;;;;;;;;
2022/06/28 05:57:24;;;;;;;23.88;13.38;;;;;;;;;;6238490;22;20020;-83
2022/06/28 05:59:50;;;;;;;22.25;14.23;;;;;;;;;;6269056;22;20039;-85
2022/06/28 06:02:44;;;;;;;30.38;14.95;;;;;;;;;;6264530;22;20023;-84
2022/06/28 06:05:20;;;;;;;23.40;14.25;;;;;;;;;;6247475;22;20016;-87
2022/06/28 06:07:46;;;;;;;18.95;12.25;;;;;;;;;;6273534;22;20026;-82
2022/06/28 06:10:12;;;;;;;17.92;12.95;;;;;;;;;;6228570;22;20015;-84
2022/06/28 06:12:38;;;;;;;17.27;11.90;;;;;;;;;;6253010;22;20022;-88
2022/06/28 06:17:41;;;;;;;16.25;12.32;;;;;;;;;;6276188;22;20043;-87
2022/06/28 06:20:08;;;;;;;20.48;12.73;;;;;;;;;;6255215;22;20443;-88
2022/06/28 06:22:53;;;;;;;16.25;12.63;;;;;;;;;;6255513;22;20047;-89
2022/06/28 06:25:19;;;;;;;17.38;11.98;;;;;;;;;;6231091;22;20015;-83
2022/06/28 06:33:40;;;;;;;13.25;9.95;;;;;;;;;;6269754;22;20459;-87
2022/06/28 06:36:06;;;;;;;14.05;9.35;;;;;;;;;;6251933;22;20016;-87
2022/06/28 06:38:32;;;;;;;16.23;8.65;;;;;;;;;;6252262;22;20443;-87
2022/06/28 06:41:33;;;;;;;15.10;9.00;;;;;;;;;;6225239;22;20112;-85
2022/06/28 06:43:59;;;;;;;13.15;8.27;;;;;;;;;;6225163;22;20554;-88
2022/06/28 06:46:25;;;;;;;28.42;8.85;;;;;;;;;;6251001;22;20062;-86
2022/06/28 06:48:51;;;;;;;23.70;8.65;;;;;;;;;;6282996;22;20023;-88
2022/06/28 06:54:05;;;;;;;13.48;6.97;;;;;;;;;;6258884;22;20023;-89
2022/06/28 06:56:32;;;;;;;12.43;6.60;;;;;;;;;;6219050;22;20023;-84
2022/06/28 06:58:58;;;;;;;17.95;7.85;;;;;;;;;;6219691;22;20011;-86
2022/06/28 07:01:28;;;;;;;12.45;7.22;;;;;;;;;;6244495;22;20012;-88
2022/06/28 07:03:55;;;;;;;11.27;6.00;;;;;;;;;;6249311;22;20021;-85
2022/06/28 07:06:21;;;;;;;16.15;7.15;;;;;;;;;;6224151;22;20034;-86
2022/06/28 07:08:47;;;;;;;20.17;9.00;;;;;;;;;;6223192;22;20015;-87
2022/06/28 07:11:31;;;;;;;12.23;7.00;;;;;;;;;;6275949;22;20027;-82
2022/06/28 07:13:57;;;;;;;22.02;6.75;;;;;;;;;;6222582;22;20051;-85
2022/06/28 07:16:23;;;;;;;10.32;6.68;;;;;;;;;;6254032;22;20019;-83
2022/06/28 07:18:55;;;;;;;12.18;6.30;;;;;;;;;;6281636;22;20066;-86
2022/06/28 07:21:22;;;;;;;10.40;4.85;;;;;;;;;;6256383;22;20065;-84
2022/06/28 07:23:48;;;;;;;11.02;4.97;;;;;;;;;;6253261;22;20760;-85
2022/06/28 07:26:16;;;;;;;9.60;5.28;;;;;;;;;;6250932;22;20047;-84
2022/06/28 07:28:42;;;;;;;10.95;5.43;;;;;;;;;;6247973;22;20024;-84
2022/06/28 07:31:08;;;;;;;11.20;5.70;;;;;;;;;;6223059;22;20012;-84
2022/06/28 07:33:34;;;;;;;14.95;5.05;;;;;;;;;;6219799;22;20435;-82
2022/06/28 07:36:00;;;;;;;10.20;4.28;;;;;;;;;;6272047;22;20016;-82
2022/06/28 07:38:29;;;;;;;12.20;4.60;;;;;;;;;;6196122;22;20066;-83
2022/06/28 07:40:56;;;;;;;7.55;3.97;;;;;;;;;;6219185;22;20023;-83
2022/06/28 07:43:25;;;;;;;11.43;4.45;;;;;;;;;;6219433;22;20341;-84
2022/06/28 07:45:51;;;;;;;9.60;3.45;;;;;;;;;;6218283;22;20050;-83
2022/06/28 07:48:19;;;;;;;7.93;3.70;;;;;;;;;;6219841;22;20321;-83
2022/06/28 07:53:30;;;;;;;10.23;3.60;;;;;;;;;;6245396;22;20051;-83
2022/06/28 07:55:57;;;;;;;10.95;3.10;;;;;;;;;;6247942;22;20016;-82
2022/06/28 07:59:03;;;;;;;10.45;3.45;;;;;;;;;;6221660;22;20019;-84
2022/06/28 08:01:31;;;;;;;8.65;3.42;;;;;;;;;;6272795;22;20019;-84
2022/06/28 08:09:36;;;;;;;11.10;2.10;;;;;;;;;;6272055;22;20022;-84
2022/06/28 08:12:05;;;;;;;10.05;2.03;;;;;;;;;;6270394;22;20058;-85
2022/06/28 08:14:31;;;;;;;12.13;2.30;;;;;;;;;;6223995;22;20311;-83
2022/06/28 08:16:58;;;;;;;8.52;1.95;;;;;;;;;;6197216;22;20012;-82
2022/06/28 08:19:40;;;;;;;;;;;;;;;;;;;;;
2022/06/28 08:22:25;;;;;;;12.32;2.00;;;;;;;;;;6271631;22;20121;-87
2022/06/28 08:24:51;;;;;;;11.32;2.28;;;;;;;;;;6216717;22;20104;-83
2022/06/28 08:27:18;;;;;;;7.45;1.80;;;;;;;;;;6272729;22;20020;-84
2022/06/28 08:29:45;;;;;;;11.95;2.50;;;;;;;;;;6217436;22;20139;-83
2022/06/28 08:32:12;;;;;;;10.57;2.53;;;;;;;;;;6245555;22;20027;-84
2022/06/28 08:34:38;;;;;;;19.40;3.38;;;;;;;;;;6245087;22;20878;-88
2022/06/28 08:37:05;;;;;;;12.20;2.10;;;;;;;;;;6219217;22;20018;-86
2022/06/28 08:39:31;;;;;;;8.00;1.70;;;;;;;;;;6216989;22;20452;-84
2022/06/28 08:41:59;;;;;;;8.35;2.10;;;;;;;;;;6219962;22;20017;-83
2022/06/28 08:47:50;;;;;;;10.00;2.08;;;;;;;;;;6262253;22;20105;-84
2022/06/28 08:50:20;;;;;;;5.07;1.90;;;;;;;;;;6214938;22;20026;-86
2022/06/28 08:52:48;;;;;;;6.70;1.52;;;;;;;;;;6244397;22;20015;-83
2022/06/28 08:57:50;;;;;;;10.13;2.83;;;;;;;;;;6250872;22;20081;-84
2022/06/28 09:00:16;;;;;;;7.38;1.67;;;;;;;;;;6217431;22;20020;-84
2022/06/28 09:02:42;;;;;;;11.60;2.03;;;;;;;;;;6219228;22;20098;-82
2022/06/28 09:05:09;;;;;;;7.70;2.20;;;;;;;;;;6216039;22;20022;-85
2022/06/28 09:07:35;;;;;;;7.82;2.65;;;;;;;;;;6268707;22;20353;-83
2022/06/28 09:13:41;;;;;;;8.93;2.15;;;;;;;;;;6265661;22;20082;-84
2022/06/28 09:19:39;;;;;;;6.25;1.58;;;;;;;;;;6268802;22;20037;-85
2022/06/28 09:22:06;;;;;;;7.10;1.90;;;;;;;;;;6241492;22;20237;-85
2022/06/28 09:24:35;;;;;;;7.18;1.58;;;;;;;;;;6266466;22;20039;-86
2022/06/28 09:31:05;;;;;;;6.30;1.33;;;;;;;;;;6271332;22;20108;-84
2022/06/28 09:33:58;;;;;;;9.40;1.58;;;;;;;;;;6112786;23;20512;-85
2022/06/28 09:36:43;;;;;;;7.90;2.13;;;;;;;;;;6093352;23;20022;-82
2022/06/28 09:42:10;;;;;;;7.63;1.85;;;;;;;;;;6266366;22;20023;-83
2022/06/28 09:44:36;;;;;;;5.47;1.42;;;;;;;;;;6091878;23;20048;-82
2022/06/28 09:50:52;;;;;;;9.27;2.15;;;20.50;99.90;;;;;;6009127;23;20024;-90
2022/06/28 10:15:51;;;;;;;6.35;1.55;;;;;;;;;;6274496;22;20130;-86
2022/06/28 10:18:20;;;;;;;7.43;1.50;;;;;;;;;;6223420;22;20498;-85
2022/06/28 10:24:52;;;;;;;5.57;1.70;;;;;;;;;;6245946;23;20027;-86
2022/06/28 10:27:19;;;;;;;5.80;1.58;;;;;;;;;;6214767;23;20029;-90
2022/06/28 10:36:13;;;;;;;6.80;2.05;;;;;;;;;;6215439;23;20021;-84
2022/06/28 10:39:07;;;;;;;9.90;2.33;;;;;;;;;;6212039;23;20038;-87
2022/06/28 10:41:53;;;;;;;7.32;1.60;;;;;;;;;;6184626;23;20024;-85
2022/06/28 10:44:41;;;;;;;8.95;1.27;;;;;;;;;;6214402;23;20020;-87
2022/06/28 10:47:07;;;;;;;5.50;1.67;;;;;;;;;;6184178;23;20024;-83
2022/06/28 10:49:51;;;;;;;5.68;1.35;;;;;;;;;;6187425;23;20028;-86
2022/06/28 10:52:35;;;;;;;11.30;2.03;;;;;;;;;;6087879;23;20855;-83
2022/06/28 10:58:23;;;;;;;6.00;2.03;;;;;;;;;;6092078;23;20018;-86
2022/06/28 11:00:55;;;;;;;5.35;1.70;;;;;;;;;;6065406;23;20062;-83
2022/06/28 11:07:06;;;;;;;8.15;2.40;;;;;;;;;;6117427;23;20061;-88
2022/06/28 11:09:56;;;;;;;7.75;2.28;;;;;;;;;;6073445;23;20026;-86
2022/06/28 11:15:59;;;;;;;8.30;2.30;;;;;;;;;;6129997;23;20033;-88
2022/06/28 11:18:35;;;;;;;9.32;2.03;;;;;;;;;;6124489;23;20025;-87
2022/06/28 11:31:45;;;;;;;8.93;2.10;;;;;;;;;;6268709;22;20099;-89
2022/06/28 11:34:11;;;;;;;11.48;2.20;;;;;;;;;;6243515;22;20069;-86
2022/06/28 11:40:23;;;;;;;9.95;2.20;;;;;;;;;;6264182;22;20041;-87
2022/06/28 11:43:06;;;;;;;10.90;1.98;;;;;;;;;;6240564;22;21033;-87
2022/06/28 11:49:25;;;;;;;10.32;1.85;;;;;;;;;;6268982;22;20253;-87
2022/06/28 11:51:57;;;;;;;7.97;1.80;;;;;;;;;;6217925;22;20037;-85
2022/06/28 11:57:46;;;;;;;7.93;1.90;;;;;;;;;;6245052;22;20075;-87
2022/06/28 12:00:24;;;;;;;10.32;2.40;;;;;;;;;;6217836;22;20019;-86
2022/06/28 12:05:53;;;;;;;6.65;1.85;;;;;;;;;;6255543;22;20024;-87
2022/06/28 12:54:17;;;;;;;7.78;1.90;;;;;;;;;;6254159;22;20054;-89
2022/06/28 13:03:10;;;;;;;5.07;1.80;;;;;;;;;;6275158;22;20085;-89
2022/06/28 13:05:37;;;;;;;7.38;2.17;;;;;;;;;;6241933;22;20020;-84
2022/06/28 13:18:34;;;;;;;7.50;1.70;;;;;;;;;;6252073;23;20454;-86
2022/06/28 13:21:29;;;;;;;5.90;1.40;;;;;;;;;;6196031;23;20020;-82
2022/06/28 13:31:06;;;;;;;6.38;1.90;;;;;;;;;;6247992;23;20505;-83
2022/06/28 13:33:50;;;;;;;8.70;2.13;;;;;;;;;;6223089;23;20038;-84
2022/06/28 13:36:42;;;;;;;6.43;1.60;;;;;;;;;;6244572;23;20058;-82
2022/06/28 13:43:02;;;;;;;6.93;1.52;;;;;;;;;;6180567;23;20016;-83
2022/06/28 14:13:51;;;;;;;8.95;1.77;;;;;;;;;;6245935;23;20019;-84
2022/06/28 14:20:17;;;;;;;4.68;1.67;;;;;;;;;;6258097;22;20499;-83
2022/06/28 14:23:08;;;;;;;6.72;1.58;;;;;;;;;;6271640;22;20020;-82
2022/06/28 14:25:35;;;;;;;5.30;0.88;;;;;;;;;;6212514;23;20032;-84
2022/06/28 14:28:02;;;;;;;5.82;1.77;;;;;;;;;;6218287;23;20031;-85
2022/06/28 14:30:37;;;;;;;5.43;1.48;;;;;;;;;;6194010;23;20043;-83
2022/06/28 14:33:21;;;;;;;3.92;1.38;;;;;;;;;;6190820;23;20107;-86
2022/06/28 14:36:05;;;;;;;4.95;1.30;;;;;;;;;;6190894;23;20072;-84
2022/06/28 14:38:31;;;;;;;4.30;1.40;;;;;;;;;;6215696;23;20020;-86
2022/06/28 14:41:00;;;;;;;6.53;1.33;;;;;;;;;;6244811;22;20027;-86
2022/06/28 14:43:27;;;;;;;3.70;1.30;;;;;;;;;;6246543;23;20024;-83
2022/06/28 14:49:16;;;;;;;4.75;1.25;;;;;;;;;;6217493;23;20020;-83
2022/06/28 14:51:43;;;;;;;3.97;1.08;;;;;;;;;;6247701;23;20020;-82
2022/06/28 14:54:18;;;;;;;3.33;1.20;;;;;;;;;;6218523;23;20016;-82
2022/06/28 14:56:57;;;;;;;4.13;1.27;;;;;;;;;;6220955;23;20024;-84
2022/06/28 14:59:33;;;;;;;3.88;1.10;;;;;;;;;;6193025;23;20110;-85
2022/06/28 15:01:59;;;;;;;3.78;1.13;;;;;;;;;;6217298;23;20026;-85
2022/06/28 15:04:34;;;;;;;4.20;1.50;;;;;;;;;;6218440;23;20408;-83
2022/06/28 15:07:09;;;;;;;4.57;0.98;;;;;;;;;;6244545;23;20493;-85
2022/06/28 15:09:45;;;;;;;3.83;1.42;;;;;;;;;;6218944;23;20107;-85
2022/06/28 15:12:11;;;;;;;5.47;1.33;;;;;;;;;;6217079;23;20039;-84
2022/06/28 15:14:48;;;;;;;;;;;;;;;;;;;;;
2022/06/28 15:17:21;;;;;;;3.92;1.00;;;;;;;;;;6246334;23;20024;-85
2022/06/28 15:19:56;;;;;;;2.72;0.80;;;;;;;;;;6250526;23;20020;-81
2022/06/28 15:31:09;;;;;;;3.97;1.00;;;;;;;;;;6246162;23;20104;-81
2022/06/28 15:33:35;;;;;;;2.20;1.13;;;;;;;;;;6245689;23;20027;-82
2022/06/28 15:36:05;;;;;;;4.10;1.15;;;;;;;;;;6215948;23;20141;-81
2022/06/28 15:38:43;;;;;;;6.72;1.25;;;;;;;;;;6158131;23;20025;-81
2022/06/28 15:41:15;;;;;;;3.20;1.02;;;;;;;;;;6168356;23;20016;-83
2022/06/28 15:43:42;;;;;;;4.10;1.10;;;;;;;;;;6211011;23;20031;-79
2022/06/28 15:46:09;;;;;;;5.25;1.20;;;;;;;;;;6234962;23;20024;-81
2022/06/28 15:48:44;;;;;;;2.50;0.88;;;;;;;;;;6187990;23;20020;-81
2022/06/28 15:54:40;;;;;;;5.43;1.10;;;;;;;;;;6212949;23;20024;-81
2022/06/28 15:57:10;;;;;;;4.72;0.88;;;;;;;;;;6185438;23;20511;-82
2022/06/28 15:59:37;;;;;;;2.60;1.35;;;;;;;;;;6187996;23;20135;-83
2022/06/28 16:02:03;;;;;;;5.15;1.38;;;;;;;;;;6186801;23;20099;-83
2022/06/28 16:04:31;;;;;;;6.43;1.20;;;;;;;;;;6214739;23;20032;-81
2022/06/28 16:06:58;;;;;;;4.40;0.90;;;;;;;;;;6189797;23;20029;-83
2022/06/28 16:09:46;;;;;;;2.30;0.93;;;;;;;;;;6229515;23;20169;-84
2022/06/28 16:15:41;;;;;;;7.05;1.00;;;;;;;;;;6233978;23;20038;-83
2022/06/28 16:24:09;;;;;;;8.77;1.58;;;;;;;;;;6250541;22;20046;-84
2022/06/28 16:32:15;;;;;;;3.00;0.98;;;;;;;;;;6296931;22;20030;-82
2022/06/28 16:38:06;;;;;;;3.80;1.20;;;;;;;;;;6249445;23;20020;-83
2022/06/28 16:40:49;;;;;;;2.85;1.13;;;;;;;;;;6200575;23;20031;-85
2022/06/28 16:43:18;;;;;;;4.80;1.27;;;;;;;;;;6199516;23;20023;-85
2022/06/28 16:45:46;;;;;;;6.57;1.30;;;;;;;;;;6198756;23;20460;-84
2022/06/28 16:48:12;;;;;;;3.45;1.25;;;;;;;;;;6199760;23;20020;-83
2022/06/28 16:50:38;;;;;;;5.90;0.93;;;;;;;;;;6224229;23;20020;-82
2022/06/28 16:53:25;;;;;;;4.40;1.38;;;;;;;;;;6222737;23;20012;-82
2022/06/28 16:55:51;;;;;;;6.28;1.70;;;;;;;;;;6219883;23;20071;-81
2022/06/28 17:01:27;;;;;;;2.85;1.10;;;;;;;;;;6245655;23;20022;-82
2022/06/28 17:04:09;;;;;;;6.37;1.47;;;;;;;;;;6251770;23;20027;-82
2022/06/28 17:09:26;;;;;;;3.20;1.30;;;;;;;;;;6230355;23;20024;-83
2022/06/28 17:11:52;;;;;;;4.97;1.15;;;;;;;;;;6246934;23;20016;-83
2022/06/28 17:14:18;;;;;;;4.38;1.05;;;;;;;;;;6197857;23;20440;-85
2022/06/28 17:16:44;;;;;;;5.43;1.50;;;;;;;;;;6247504;22;20020;-84
2022/06/28 17:19:17;;;;;;;4.10;1.27;;;;;;;;;;6197530;23;20028;-86
2022/06/28 17:31:33;;;;;;;3.97;1.05;;;;;;;;;;6284178;22;20033;-85
2022/06/28 17:37:24;;;;;;;5.60;1.40;;;;;;;;;;6189588;23;20587;-88
2022/06/28 17:40:07;;;;;;;3.30;1.08;;;;;;;;;;6224888;22;20043;-84
2022/06/28 17:43:08;;;;;;;2.90;1.30;;;30.90;98.60;;;;;;6189794;23;20055;-85
2022/06/28 17:45:36;;;;;;;3.05;1.08;;;;;;;;;;6140967;23;20337;-82
2022/06/28 17:48:21;;;;;;;6.05;1.23;;;;;;;;;;6188974;23;20028;-84
2022/06/28 17:50:48;;;;;;;6.47;1.85;;;;;;;;;;6214982;23;20099;-83
2022/06/28 17:56:24;;;;;;;4.03;1.10;;;;;;;;;;6221026;23;20079;-82
2022/06/28 17:59:26;;;;;;;4.50;1.23;;;;;;;;;;6220063;23;21400;-85
2022/06/28 18:01:52;;;;;;;4.72;1.20;;;;;;;;;;6225196;23;20048;-83
2022/06/28 18:04:31;;;;;;;4.05;1.23;;;;;;;;;;6221527;23;20511;-85
2022/06/28 18:07:30;;;;;;;3.20;1.17;;;;;;;;;;6193085;23;20024;-83
2022/06/28 18:10:05;;;;;;;3.55;1.30;;;;;;;;;;6164524;23;20017;-82
2022/06/28 18:12:39;;;;;;;4.38;1.20;;;;;;;;;;6210941;22;20019;-83
2022/06/28 18:15:11;;;;;;;4.07;1.15;;;;;;;;;;6256369;22;20023;-82
2022/06/28 18:17:47;;;;;;;5.10;1.20;;;;;;;;;;6309928;22;20427;-81
2022/06/28 18:20:48;;;;;;;3.42;1.17;;;;;;;;;;6273601;22;20031;-82
2022/06/28 18:23:17;;;;;;;3.75;1.20;;;;;;;;;;6251674;22;20111;-83
2022/06/28 18:26:06;;;;;;;4.80;1.08;;;;;;;;;;6285836;22;20023;-82
2022/06/28 18:32:33;;;;;;;3.65;1.23;;;;;;;;;;6332945;22;20030;-83
2022/06/28 18:35:03;;;;;;;4.10;1.10;;;;;;;;;;6259072;22;20440;-81
2022/06/28 18:41:10;;;;;;;4.40;1.70;;;;;;;;;;6328908;22;20049;-85
2022/06/28 18:50:32;;;;;;;5.60;1.65;;;;;;;;;;6165794;23;20048;-84
2022/06/28 18:52:58;;;;;;;6.82;1.50;;;;;;;;;;6166813;23;20202;-84
2022/06/28 18:55:43;;;;;;;4.63;1.60;;;;;;;;;;6163584;23;20496;-83
2022/06/28 18:58:10;;;;;;;9.68;2.22;;;;;;;;;;6189783;23;20089;-84
2022/06/28 19:15:33;;;;;;;8.68;1.52;;;;;;;;;;6248214;22;20107;-84
2022/06/28 19:18:30;;;;;;;7.25;1.50;;;;;;;;;;6219067;23;20028;-84
2022/06/28 19:30:05;;;;;;;7.43;1.35;;;;;;;;;;6283545;22;20066;-84
2022/06/28 19:32:31;;;;;;;4.65;1.40;;;;;;;;;;6229861;22;20062;-83
2022/06/28 19:34:57;;;;;;;6.20;1.42;;;;;;;;;;6254648;22;20035;-82
2022/06/28 19:37:26;;;;;;;5.65;1.65;;;;;;;;;;6254971;22;20034;-85
2022/06/28 19:40:11;;;;;;;12.82;1.58;;;;;;;;;;6203276;22;20048;-82
2022/06/28 19:42:38;;;;;;;7.50;1.50;;;;;;;;;;6254061;22;20027;-84
2022/06/28 19:45:05;;;;;;;9.80;5.40;;;;;;;;;;6255715;22;20071;-84
2022/06/28 19:47:31;;;;;;;6.30;2.40;;;;;;;;;;6252365;22;20023;-84
2022/06/28 19:49:58;;;;;;;6.30;1.60;;;;;;;;;;6230050;22;20095;-84
2022/06/28 19:52:24;;;;;;;5.82;1.55;;;;;;;;;;6279691;22;20019;-82
2022/06/28 19:57:57;;;;;;;8.68;1.88;;;;;;;;;;6251918;22;20074;-85
2022/06/28 20:00:23;;;;;;;10.63;2.08;;;;;;;;;;6203614;22;20041;-84
2022/06/28 20:02:54;;;;;;;9.43;1.73;;;;;;;;;;6201397;22;20028;-85
2022/06/28 20:05:34;;;;;;;8.60;2.45;;;;;;;;;;6280255;22;20347;-84
2022/06/28 20:08:00;;;;;;;4.10;1.67;;;;;;;;;;6254311;22;20020;-84
2022/06/28 20:10:26;;;;;;;7.22;1.70;;;;;;;;;;6256254;22;20015;-83
2022/06/28 20:12:54;;;;;;;7.90;1.63;;;;;;;;;;6254258;22;20447;-84
2022/06/28 20:15:20;;;;;;;10.27;1.83;;;;;;;;;;6253046;22;20030;-83
2022/06/28 20:20:47;;;;;;;6.55;2.60;;;;;;;;;;6280888;22;20067;-85
2022/06/28 20:23:13;;;;;;;6.47;1.70;;;;;;;;;;6233267;22;20018;-85
2022/06/28 20:25:39;;;;;;;6.03;1.92;;;;;;;;;;6276930;22;20110;-83
2022/06/28 20:28:06;;;;;;;7.90;1.83;;;;;;;;;;6282896;22;20023;-84
2022/06/28 20:30:33;;;;;;;9.13;1.73;;;;;;;;;;6252758;22;20142;-85
2022/06/28 20:35:57;;;;;;;6.95;2.72;;;;;;;;;;6280080;22;20686;-83
2022/06/28 20:49:17;;;;;;;6.47;2.25;;;20.20;99.90;;;;;;6256591;22;20341;-86
2022/06/28 20:52:08;;;;;;;11.57;2.55;;;;;;;;;;6225738;23;20438;-85
2022/06/28 20:54:49;;;;;;;7.97;2.35;;;;;;;;;;6249278;23;20024;-84
2022/06/28 20:57:26;;;;;;;7.88;2.65;;;;;;;;;;6250962;23;20040;-82
2022/06/28 21:00:06;;;;;;;5.75;2.30;;;;;;;;;;6221817;23;20016;-80
2022/06/28 21:03:04;;;;;;;9.80;2.80;;;;;;;;;;6200117;23;20048;-81
2022/06/28 21:05:30;;;;;;;10.60;3.22;;;;;;;;;;6252974;22;20020;-85
2022/06/28 21:07:57;;;;;;;9.98;2.83;;;;;;;;;;6250750;23;20100;-84
2022/06/28 21:10:23;;;;;;;14.55;3.20;;;;;;;;;;6198358;23;20024;-83
2022/06/28 21:12:50;;;;;;;8.73;2.80;;;;;;;;;;6249289;23;20075;-84
2022/06/28 21:15:28;;;;;;;8.40;3.05;;;;;;;;;;6249633;23;20039;-83
2022/06/28 21:18:28;;;;;;;9.45;2.60;;;;;;;;;;6217729;23;20025;-85
2022/06/28 21:21:13;;;;;;;6.18;2.47;;;;;;;;;;6217307;23;20052;-83
2022/06/28 21:23:40;;;;;;;7.43;3.13;;;;;;;;;;6252404;23;20055;-85
2022/06/28 21:26:06;;;;;;;8.75;3.58;;;;;;;;;;6225777;23;20027;-84
2022/06/28 21:28:32;;;;;;;10.50;3.25;;;;;;;;;;6227182;23;20573;-84
2022/06/28 21:31:04;;;;;;;4.60;2.95;;;;;;;;;;6211366;23;20057;-85
2022/06/28 21:33:36;;;;;;;6.97;3.33;;;;;;;;;;6224899;23;20024;-84
2022/06/28 21:38:51;;;;;;;7.68;3.42;;;;;;;;;;6225383;22;20025;-82
2022/06/28 21:41:28;;;;;;;6.80;2.85;;;;;;;;;;6192615;23;20029;-84
2022/06/28 21:44:01;;;;;;;8.68;3.45;;;;;;;;;;6192423;23;20044;-83
2022/06/28 21:46:27;;;;;;;9.07;3.42;;;;;;;;;;6219467;23;20036;-82
2022/06/28 21:48:57;;;;;;;9.27;3.40;;;;;;;;;;6219919;23;20442;-83
2022/06/28 21:54:11;;;;;;;11.32;3.70;;;;;;;;;;6218719;23;20400;-82
2022/06/28 21:56:43;;;;;;;10.00;3.55;;;;;;;;;;6191721;23;20039;-82
2022/06/28 21:59:11;;;;;;;8.10;3.42;;;;;;;;;;6164110;23;20472;-82
2022/06/28 22:01:41;;;;;;;11.65;3.35;;;;;;;;;;6189125;23;20020;-82
2022/06/28 22:04:07;;;;;;;9.25;3.88;;;;;;;;;;6188608;23;20047;-83
2022/06/28 22:06:34;;;;;;;11.07;4.05;;;;;;;;;;6215855;23;20021;-82
2022/06/28 22:09:01;;;;;;;8.18;3.80;;;;;;;;;;6214877;23;20016;-81
2022/06/28 22:11:34;;;;;;;9.48;3.30;;;;;;;;;;6217047;23;20096;-83
2022/06/28 22:14:34;;;;;;;9.70;3.88;;;;;;;;;;6215362;23;20087;-82
2022/06/28 22:17:00;;;;;;;8.32;3.40;;;;;;;;;;6127696;23;20049;-82
2022/06/28 22:19:26;;;;;;;8.38;4.10;;;;;;;;;;6213699;23;20072;-82
2022/06/28 22:21:52;;;;;;;5.75;3.33;;;;;;;;;;6188452;23;20073;-83
2022/06/28 22:24:18;;;;;;;12.68;4.97;;;;;;;;;;6188646;23;20020;-83
2022/06/28 22:26:54;;;;;;;7.88;3.60;;;;;;;;;;6215452;23;20020;-83
2022/06/28 22:29:20;;;;;;;12.32;4.43;;;;;;;;;;6189598;23;20044;-81
2022/06/28 22:31:46;;;;;;;11.85;4.10;;;;;;;;;;6214721;23;20021;-83
2022/06/28 22:34:12;;;;;;;7.57;3.85;;;;;;;;;;6189135;23;20020;-82
2022/06/28 22:36:38;;;;;;;13.82;4.30;;;;;;;;;;6189029;23;20016;-82
2022/06/28 22:39:05;;;;;;;6.70;4.18;;;;;;;;;;6217217;23;20086;-83
2022/06/28 22:41:31;;;;;;;15.40;4.90;;;;;;;;;;6162717;23;20064;-82